Time;durP1;ratioP1;P1;durP2;ratioP2;P2;SDS_P1;SDS_P2;PMS_P1;PMS_P2;Temp;Humidity;BMP_temperature;BMP_pressure;BME280_temperature;BME280_humidity;BME280_pressure;Samples;Min_cycle;Max_cycle;Signal;HPM_P1;HPM_P2
2022/10/20 00:01:29;;;;;;;25.17;18.25;;;11.80;99.90;;;;;;5105925;28;20202;-87
2022/10/20 00:10:55;;;;;;;26.90;19.95;;;12.10;99.90;;;;;;5107618;28;20184;-87
2022/10/20 00:13:30;;;;;;;31.73;19.80;;;12.30;99.90;;;;;;5107857;28;20594;-87
2022/10/20 00:19:23;;;;;;;29.90;20.52;;;12.20;99.90;;;;;;5105332;28;20163;-88
2022/10/20 00:25:17;;;;;;;32.05;22.33;;;12.10;99.90;;;;;;5086672;28;20282;-87
2022/10/20 00:28:34;;;;;;;34.47;21.15;;;12.10;99.90;;;;;;5086891;28;20217;-88
2022/10/20 00:31:35;;;;;;;29.20;21.38;;;12.00;99.90;;;;;;5091252;28;20208;-88
2022/10/20 00:37:51;;;;;;;31.52;22.45;;;12.10;99.90;;;;;;5107793;28;20227;-87
2022/10/20 00:43:56;;;;;;;32.03;22.23;;;12.20;99.90;;;;;;5107511;28;20175;-87
2022/10/20 00:50:44;;;;;;;30.35;22.13;;;12.50;99.90;;;;;;5107324;28;20298;-87
2022/10/20 00:56:40;;;;;;;28.85;21.00;;;12.50;99.90;;;;;;5086674;28;20667;-88
2022/10/20 01:02:29;;;;;;;33.38;22.27;;;12.60;99.90;;;;;;5104738;28;20188;-88
2022/10/20 01:31:52;;;;;;;29.55;21.77;;;12.40;99.90;;;;;;5150500;27;20163;-88
2022/10/20 01:38:11;;;;;;;29.20;21.02;;;12.20;99.90;;;;;;5150667;27;20241;-88
2022/10/20 01:44:24;;;;;;;31.27;22.00;;;12.20;99.90;;;;;;5150079;27;20158;-87
2022/10/20 01:54:06;;;;;;;28.35;20.92;;;12.10;99.90;;;;;;5150182;27;20179;-87
2022/10/20 02:00:04;;;;;;;30.25;20.75;;;12.20;99.90;;;;;;5149828;27;20165;-87
2022/10/20 02:06:06;;;;;;;29.13;21.52;;;12.10;99.90;;;;;;5146808;27;20688;-88
2022/10/20 02:12:12;;;;;;;32.22;22.15;;;12.00;99.90;;;;;;5149342;27;20177;-87
2022/10/20 02:18:06;;;;;;;29.17;21.20;;;12.00;99.90;;;;;;5148879;27;20198;-87
2022/10/20 02:21:26;;;;;;;29.52;21.08;;;12.10;99.90;;;;;;5132112;27;20247;-87
2022/10/20 02:23:59;;;;;;;27.15;20.08;;;12.10;99.90;;;;;;5148603;27;20235;-87
2022/10/20 02:27:11;;;;;;;28.45;20.58;;;12.20;99.90;;;;;;5149011;27;20341;-87
2022/10/20 02:36:39;;;;;;;35.33;21.48;;;12.10;99.90;;;;;;5152888;27;20217;-88
2022/10/20 02:43:12;;;;;;;32.13;21.40;;;12.00;99.90;;;;;;5180109;27;20254;-88
2022/10/20 02:45:42;;;;;;;30.10;20.90;;;12.00;99.90;;;;;;5165528;27;20624;-88
2022/10/20 02:48:50;;;;;;;26.85;20.15;;;11.90;99.90;;;;;;5164881;27;20289;-87
2022/10/20 02:51:55;;;;;;;31.83;21.92;;;11.90;99.90;;;;;;5150944;27;20233;-88
2022/10/20 02:55:00;;;;;;;30.92;21.52;;;11.80;99.90;;;;;;5166032;27;20200;-88
2022/10/20 02:57:48;;;;;;;28.83;20.92;;;11.90;99.90;;;;;;5165854;27;20233;-88
2022/10/20 03:00:28;;;;;;;28.90;20.95;;;11.80;99.90;;;;;;5138166;27;20226;-87
2022/10/20 03:06:18;;;;;;;29.55;20.27;;;12.00;99.90;;;;;;5162492;27;20209;-87
2022/10/20 03:12:31;;;;;;;27.98;20.73;;;11.80;99.90;;;;;;5145332;27;20201;-87
2022/10/20 03:21:48;;;;;;;28.73;18.75;;;11.80;99.90;;;;;;5155449;27;20237;-87
2022/10/20 03:24:15;;;;;;;27.58;18.63;;;11.90;99.90;;;;;;5168353;27;20205;-90
2022/10/20 03:34:01;;;;;;;30.38;19.88;;;11.90;99.90;;;;;;5163375;27;20198;-88
2022/10/20 03:36:48;;;;;;;28.95;19.83;;;11.80;99.90;;;;;;5146020;27;20195;-87
2022/10/20 03:39:15;;;;;;;30.20;19.17;;;11.80;99.90;;;;;;5143832;27;20285;-88
2022/10/20 03:42:12;;;;;;;29.15;19.33;;;11.80;99.90;;;;;;5162423;27;20302;-88
2022/10/20 03:44:40;;;;;;;27.60;19.30;;;11.80;99.90;;;;;;5174247;27;20625;-88
2022/10/20 03:47:33;;;;;;;25.77;18.80;;;11.80;99.90;;;;;;5167239;27;20274;-88
2022/10/20 03:50:18;;;;;;;26.45;18.85;;;11.80;99.90;;;;;;5153407;27;20263;-87
2022/10/20 03:56:07;;;;;;;23.88;17.98;;;11.80;99.90;;;;;;5144022;27;20196;-87
2022/10/20 04:05:21;;;;;;;30.92;19.30;;;11.60;99.90;;;;;;5157785;27;20297;-87
2022/10/20 04:11:25;;;;;;;26.17;18.40;;;11.60;99.90;;;;;;5152663;27;20218;-87
2022/10/20 04:27:23;;;;;;;32.90;18.35;;;11.60;99.90;;;;;;5165140;27;20250;-88
2022/10/20 04:29:50;;;;;;;33.00;20.20;;;11.50;99.90;;;;;;5155242;27;20191;-87
2022/10/20 04:32:18;;;;;;;31.90;19.83;;;11.50;99.90;;;;;;5160615;27;20262;-88
2022/10/20 04:35:18;;;;;;;33.67;20.85;;;11.40;99.90;;;;;;5144623;27;20296;-87
2022/10/20 04:38:36;;;;;;;28.23;18.83;;;11.40;99.90;;;;;;5145996;28;20274;-87
2022/10/20 04:47:48;;;;;;;31.90;18.20;;;11.60;99.90;;;;;;5161804;27;20216;-87
2022/10/20 04:50:48;;;;;;;28.95;19.10;;;11.60;99.90;;;;;;5150729;27;20263;-87
2022/10/20 04:53:18;;;;;;;32.47;20.08;;;11.40;99.90;;;;;;5143266;27;20290;-87
2022/10/20 04:56:17;;;;;;;26.33;19.35;;;11.40;99.90;;;;;;5153245;27;20222;-86
2022/10/20 05:02:12;;;;;;;27.35;19.48;;;11.40;99.90;;;;;;5158504;27;20236;-88
2022/10/20 05:08:31;;;;;;;26.48;20.23;;;11.30;99.90;;;;;;5158151;27;20185;-87
2022/10/20 05:11:00;;;;;;;30.55;19.77;;;11.40;99.90;;;;;;5153255;27;20261;-87
2022/10/20 05:13:30;;;;;;;29.80;19.52;;;11.40;99.90;;;;;;5151166;27;20216;-87
2022/10/20 05:15:57;;;;;;;26.95;18.73;;;11.40;99.90;;;;;;5160100;27;20290;-87
2022/10/20 05:18:24;;;;;;;29.92;18.77;;;11.40;99.90;;;;;;5151477;27;20219;-87
2022/10/20 05:20:54;;;;;;;30.50;19.33;;;11.30;99.90;;;;;;5156452;27;20728;-90
2022/10/20 05:23:21;;;;;;;35.95;19.75;;;11.30;99.90;;;;;;5156759;27;20205;-87
2022/10/20 05:25:50;;;;;;;36.08;20.35;;;11.20;99.90;;;;;;5146805;27;20230;-87
2022/10/20 05:28:36;;;;;;;28.05;19.52;;;11.10;99.90;;;;;;5146114;27;20263;-88
2022/10/20 05:31:08;;;;;;;35.60;20.45;;;11.20;99.90;;;;;;5150134;27;20251;-87
2022/10/20 05:33:44;;;;;;;40.70;20.20;;;11.10;99.90;;;;;;5159537;27;20194;-87
2022/10/20 05:37:00;;;;;;;37.13;20.40;;;11.20;99.90;;;;;;5168762;27;20202;-87
2022/10/20 05:47:08;;;;;;;30.58;19.70;;;11.20;99.90;;;;;;5163532;27;20187;-87
2022/10/20 05:50:09;;;;;;;35.05;20.15;;;11.20;99.90;;;;;;5156705;27;20194;-87
2022/10/20 05:53:30;;;;;;;40.58;21.33;;;11.10;99.90;;;;;;5164020;27;20217;-87
2022/10/20 05:59:19;;;;;;;35.33;19.80;;;10.90;99.90;;;;;;5142943;27;20216;-87
2022/10/20 06:08:32;;;;;;;34.30;19.35;;;10.90;99.90;;;;;;5164761;27;20177;-87
2022/10/20 06:21:42;;;;;;;31.75;19.25;;;11.10;99.90;;;;;;5151468;27;20709;-87
2022/10/20 06:24:20;;;;;;;29.98;18.45;;;11.10;99.90;;;;;;5159364;27;20736;-87
2022/10/20 06:26:47;;;;;;;32.78;19.63;;;11.30;99.90;;;;;;5169708;27;20217;-88
2022/10/20 06:29:33;;;;;;;47.08;33.58;;;11.30;99.90;;;;;;5143519;27;20289;-88
2022/10/20 06:32:33;;;;;;;39.47;20.73;;;11.10;99.90;;;;;;5166006;27;20277;-87
2022/10/20 06:35:06;;;;;;;33.00;20.02;;;11.10;99.90;;;;;;5165659;27;20233;-87
2022/10/20 06:37:33;;;;;;;29.70;19.48;;;11.10;99.90;;;;;;5148652;27;20286;-87
2022/10/20 06:43:24;;;;;;;30.67;18.83;;;11.10;99.90;;;;;;5156423;27;20741;-87
2022/10/20 06:46:33;;;;;;;34.95;19.95;;;11.20;99.90;;;;;;5185322;27;20186;-87
2022/10/20 06:54:57;;;;;;;25.45;17.45;;;11.20;99.90;;;;;;5123157;28;20163;-87
2022/10/20 07:01:42;;;;;;;28.45;16.92;;;11.50;99.90;;;;;;5124571;27;20213;-87
2022/10/20 07:17:39;;;;;;;22.10;15.73;;;11.60;99.90;;;;;;5122647;28;20235;-87
2022/10/20 07:27:42;;;;;;;20.30;16.10;;;11.60;99.90;;;;;;5134040;27;20682;-88
2022/10/20 07:30:30;;;;;;;25.70;15.82;;;11.40;99.90;;;;;;5141650;27;20290;-87
2022/10/20 07:33:19;;;;;;;22.85;15.93;;;11.30;99.90;;;;;;5138432;27;20281;-87
2022/10/20 07:39:13;;;;;;;23.38;15.70;;;11.30;99.90;;;;;;5126760;27;20178;-87
2022/10/20 07:48:32;;;;;;;26.83;15.60;;;11.50;99.90;;;;;;5145036;27;20200;-87
2022/10/20 07:51:25;;;;;;;21.67;14.70;;;11.60;99.90;;;;;;5145204;27;20209;-87
2022/10/20 08:01:24;;;;;;;23.83;15.65;;;11.70;99.90;;;;;;5158367;27;20179;-87
2022/10/20 08:48:34;;;;;;;18.08;13.23;;;12.50;98.60;;;;;;5116337;28;20232;-87
2022/10/20 08:57:47;;;;;;;15.38;11.02;;;12.50;97.10;;;;;;5128647;28;20189;-87
2022/10/20 09:00:21;;;;;;;16.13;11.25;;;12.50;97.40;;;;;;5128299;28;20271;-87
2022/10/20 09:03:16;;;;;;;15.00;10.85;;;12.50;97.40;;;;;;5112269;28;20239;-86
2022/10/20 09:09:17;;;;;;;13.50;9.82;;;12.90;96.40;;;;;;5090396;28;20192;-87
2022/10/20 09:15:08;;;;;;;10.48;9.23;;;13.00;95.50;;;;;;5095899;28;20192;-87
2022/10/20 09:18:08;;;;;;;12.65;9.70;;;13.00;95.40;;;;;;5090628;28;20201;-89
2022/10/20 09:21:02;;;;;;;14.93;9.57;;;12.90;95.50;;;;;;5096060;28;20211;-88
2022/10/20 09:30:17;;;;;;;14.93;11.90;;;12.90;95.70;;;;;;5096826;28;20176;-89
2022/10/20 09:32:49;;;;;;;11.38;9.68;;;13.10;96.40;;;;;;5090592;28;20192;-89
2022/10/20 09:35:27;;;;;;;15.82;9.25;;;13.50;95.20;;;;;;5092304;28;20188;-89
2022/10/20 09:38:01;;;;;;;10.85;8.88;;;13.60;93.60;;;;;;5088787;28;20207;-88
2022/10/20 09:40:31;;;;;;;12.48;8.77;;;13.70;93.60;;;;;;5098555;28;20193;-88
2022/10/20 09:43:07;;;;;;;13.73;8.38;;;13.80;93.10;;;;;;5094881;28;20216;-89
2022/10/20 09:45:47;;;;;;;10.15;8.32;;;13.60;92.80;;;;;;5094538;28;20447;-89
2022/10/20 09:48:22;;;;;;;12.13;8.18;;;13.80;93.70;;;;;;5095274;28;20192;-88
2022/10/20 09:54:17;;;;;;;10.20;8.35;;;14.00;92.10;;;;;;5090295;28;20285;-89
2022/10/20 09:57:04;;;;;;;9.70;8.70;;;13.90;92.30;;;;;;5087314;28;20204;-88
2022/10/20 09:59:50;;;;;;;10.68;8.68;;;13.80;93.00;;;;;;5094578;28;20192;-89
2022/10/20 10:09:03;;;;;;;11.65;8.45;;;14.50;91.30;;;;;;5091776;28;20185;-89
2022/10/20 10:15:24;;;;;;;9.65;7.03;;;15.50;90.40;;;;;;5094567;28;20184;-88
2022/10/20 10:17:56;;;;;;;9.80;7.72;;;16.60;78.40;;;;;;5080637;28;20189;-88
2022/10/20 10:20:35;;;;;;;10.10;7.45;;;16.50;78.30;;;;;;5096283;28;20275;-88
2022/10/20 10:23:19;;;;;;;15.43;7.90;;;17.20;68.70;;;;;;5097811;28;20216;-88
2022/10/20 10:26:21;;;;;;;13.50;8.27;;;17.40;67.00;;;;;;5106067;28;20192;-89
2022/10/20 10:28:59;;;;;;;11.25;7.70;;;17.30;66.70;;;;;;5114968;28;20196;-89
2022/10/20 10:31:59;;;;;;;12.85;7.70;;;16.50;69.50;;;;;;5095341;28;20201;-89
2022/10/20 10:34:55;;;;;;;14.20;7.78;;;16.30;75.30;;;;;;5088849;28;20200;-89
2022/10/20 10:37:25;;;;;;;11.23;7.50;;;16.50;75.90;;;;;;5095380;28;20199;-88
2022/10/20 10:40:02;;;;;;;9.00;7.00;;;16.10;75.60;;;;;;5090378;28;20207;-88
2022/10/20 10:43:06;;;;;;;11.70;7.88;;;16.30;76.70;;;;;;5080129;28;20204;-87
2022/10/20 10:45:45;;;;;;;23.08;17.23;;;15.90;77.90;;;;;;5091775;28;20243;-88
2022/10/20 10:48:51;;;;;;;21.10;12.70;;;16.40;81.30;;;;;;5093880;28;20635;-89
2022/10/20 10:51:29;;;;;;;10.38;8.38;;;16.90;70.30;;;;;;5087996;28;20193;-90
2022/10/20 10:54:22;;;;;;;9.98;6.65;;;16.90;68.40;;;;;;5087429;28;20211;-89
2022/10/20 10:56:59;;;;;;;12.23;8.05;;;17.40;62.90;;;;;;5088866;28;20658;-89
2022/10/20 10:59:29;;;;;;;12.68;6.72;;;17.20;61.60;;;;;;5094498;28;20200;-89
2022/10/20 11:02:24;;;;;;;9.98;7.10;;;17.10;62.60;;;;;;5091433;28;20283;-88
2022/10/20 11:05:12;;;;;;;9.55;6.95;;;17.00;64.00;;;;;;5075359;28;20223;-88
2022/10/20 11:07:44;;;;;;;10.45;7.40;;;16.90;67.30;;;;;;5087979;28;20232;-89
2022/10/20 11:10:21;;;;;;;9.93;6.43;;;16.90;68.60;;;;;;5089247;28;20199;-89
2022/10/20 11:13:06;;;;;;;10.23;6.95;;;17.00;69.30;;;;;;5088987;28;20192;-87
2022/10/20 11:15:45;;;;;;;9.27;7.32;;;17.00;68.20;;;;;;5090289;28;20207;-88
2022/10/20 11:18:27;;;;;;;10.60;6.65;;;17.10;69.00;;;;;;5086462;28;20192;-88
2022/10/20 11:21:06;;;;;;;10.77;6.93;;;17.00;68.90;;;;;;5090507;28;20782;-89
2022/10/20 11:24:02;;;;;;;10.00;6.90;;;17.00;70.70;;;;;;5090583;28;20284;-88
2022/10/20 11:26:33;;;;;;;10.05;6.45;;;17.00;70.00;;;;;;5091020;28;20664;-88
2022/10/20 11:29:03;;;;;;;12.75;7.00;;;17.00;70.50;;;;;;5087761;28;20193;-87
2022/10/20 11:31:34;;;;;;;8.75;5.93;;;16.80;74.30;;;;;;5092626;28;20200;-90
2022/10/20 11:34:06;;;;;;;7.32;5.60;;;17.00;71.60;;;;;;5091422;28;20669;-91
2022/10/20 11:36:37;;;;;;;9.50;6.25;;;17.20;71.80;;;;;;5081854;28;20205;-91
2022/10/20 11:39:05;;;;;;;6.68;5.93;;;17.30;73.30;;;;;;5089960;28;20197;-89
2022/10/20 11:41:38;;;;;;;8.70;6.05;;;17.40;72.80;;;;;;5092122;28;20219;-87
2022/10/20 11:44:08;;;;;;;7.75;5.60;;;17.20;70.00;;;;;;5089174;28;20407;-90
2022/10/20 11:46:40;;;;;;;9.85;5.95;;;16.80;75.00;;;;;;5079527;28;20490;-89
2022/10/20 11:49:11;;;;;;;9.30;6.30;;;16.70;75.50;;;;;;5068649;28;20300;-88
2022/10/20 11:52:25;;;;;;;11.25;6.32;;;16.50;78.40;;;;;;5052883;28;20706;-89
2022/10/20 11:55:17;;;;;;;10.40;6.97;;;16.60;78.40;;;;;;5029740;28;20211;-89
2022/10/20 11:58:00;;;;;;;8.38;5.15;;;16.60;78.40;;;;;;5071458;28;20198;-90
2022/10/20 12:00:55;;;;;;;9.13;5.80;;;16.90;78.70;;;;;;5072717;28;20207;-91
2022/10/20 12:10:36;;;;;;;5.88;4.82;;;17.60;67.30;;;;;;5075251;28;20188;-89
2022/10/20 12:13:30;;;;;;;5.20;4.07;;;17.80;66.10;;;;;;5065934;28;20280;-89
2022/10/20 12:16:48;;;;;;;7.28;4.30;;;18.00;62.60;;;;;;5070294;28;20202;-94
2022/10/20 12:19:21;;;;;;;6.38;4.15;;;18.00;59.40;;;;;;5073623;28;20280;-89
2022/10/20 12:21:55;;;;;;;6.45;4.10;;;18.10;58.20;;;;;;5070108;28;20205;-91
2022/10/20 12:24:36;;;;;;;6.95;4.30;;;18.30;56.10;;;;;;5065192;28;20708;-92
2022/10/20 12:27:31;;;;;;;7.18;4.60;;;18.60;52.90;;;;;;5067882;28;20189;-90
2022/10/20 12:33:36;;;;;;;8.10;4.68;;;19.20;52.70;;;;;;5067957;28;20705;-90
2022/10/20 12:36:32;;;;;;;5.22;4.00;;;19.10;46.70;;;;;;5070683;28;20203;-88
2022/10/20 12:39:15;;;;;;;7.63;4.63;;;18.90;46.70;;;;;;5069446;28;20208;-87
2022/10/20 12:41:54;;;;;;;8.60;4.53;;;18.90;48.00;;;;;;5062495;28;20213;-87
2022/10/20 12:44:29;;;;;;;6.68;4.05;;;18.60;49.10;;;;;;5059490;28;20213;-87
2022/10/20 12:47:36;;;;;;;6.95;4.15;;;18.50;50.00;;;;;;5069977;28;20209;-88
2022/10/20 12:50:07;;;;;;;9.02;4.00;;;18.50;51.60;;;;;;5068569;28;20231;-84
2022/10/20 12:52:40;;;;;;;7.40;4.18;;;18.50;52.10;;;;;;5075870;28;20189;-88
2022/10/20 12:55:35;;;;;;;7.05;3.58;;;18.70;50.00;;;;;;5074112;28;20190;-88
2022/10/20 12:58:54;;;;;;;28.90;22.33;;;18.80;50.00;;;;;;5061471;28;20544;-88
2022/10/20 13:01:27;;;;;;;8.15;4.80;;;18.80;48.60;;;;;;5067011;28;20208;-87
2022/10/20 13:03:55;;;;;;;5.63;4.20;;;18.80;49.20;;;;;;5071388;28;20276;-88
2022/10/20 13:06:42;;;;;;;8.90;4.10;;;18.80;48.80;;;;;;5071923;28;20764;-88
2022/10/20 13:09:22;;;;;;;8.05;4.70;;;18.60;52.10;;;;;;5071436;28;20204;-88
2022/10/20 13:12:24;;;;;;;7.18;4.28;;;18.50;52.20;;;;;;5063089;28;20209;-90
2022/10/20 13:14:58;;;;;;;5.47;4.00;;;18.30;54.40;;;;;;5067203;28;20189;-91
2022/10/20 13:17:51;;;;;;;8.48;4.78;;;18.30;55.70;;;;;;5066788;28;20197;-90
2022/10/20 13:20:25;;;;;;;7.65;4.18;;;18.10;54.20;;;;;;5030049;28;20566;-90
2022/10/20 13:23:01;;;;;;;7.53;4.53;;;18.00;54.90;;;;;;5033391;28;20672;-89
2022/10/20 13:32:27;;;;;;;8.77;4.60;;;18.10;58.80;;;;;;5034861;28;20240;-89
2022/10/20 13:35:48;;;;;;;6.80;5.38;;;18.00;62.90;;;;;;5034994;28;20230;-89
2022/10/20 13:41:46;;;;;;;9.43;4.90;;;17.70;65.10;;;;;;5037292;28;20193;-88
2022/10/20 13:44:32;;;;;;;12.20;5.65;;;17.60;68.00;;;;;;5033841;28;20228;-89
2022/10/20 13:47:08;;;;;;;8.52;5.80;;;17.50;74.30;;;;;;5028034;28;20232;-89
2022/10/20 13:49:55;;;;;;;14.95;5.93;;;17.50;74.00;;;;;;5029510;28;20205;-90
2022/10/20 13:52:22;;;;;;;11.38;6.07;;;17.30;75.60;;;;;;5026564;28;20277;-90
2022/10/20 13:54:51;;;;;;;9.55;6.22;;;17.30;75.90;;;;;;5032047;28;20203;-90
2022/10/20 13:57:26;;;;;;;14.05;6.07;;;17.30;77.10;;;;;;5058360;28;20295;-89
2022/10/20 14:00:03;;;;;;;9.55;5.53;;;17.20;77.50;;;;;;5069124;28;20201;-89
2022/10/20 14:02:37;;;;;;;8.90;5.38;;;17.20;77.10;;;;;;5072153;28;20199;-89
2022/10/20 14:05:11;;;;;;;9.23;5.93;;;17.20;76.90;;;;;;5073734;28;20259;-89
2022/10/20 14:07:39;;;;;;;11.10;6.50;;;17.20;77.20;;;;;;5074238;28;20196;-89
2022/10/20 14:10:29;;;;;;;12.32;6.03;;;17.10;78.80;;;;;;5070253;28;20197;-89
2022/10/20 14:12:57;;;;;;;12.32;6.35;;;17.10;78.80;;;;;;5071777;28;20268;-89
2022/10/20 14:15:47;;;;;;;8.05;5.45;;;17.00;78.70;;;;;;5076071;28;20213;-89
2022/10/20 14:18:22;;;;;;;6.57;5.30;;;17.10;81.10;;;;;;5073759;28;20201;-89
2022/10/20 14:21:02;;;;;;;9.45;6.57;;;17.10;79.20;;;;;;5077703;28;20223;-88
2022/10/20 14:23:35;;;;;;;7.25;6.10;;;17.10;78.80;;;;;;5096938;28;20252;-92
2022/10/20 14:26:48;;;;;;;8.40;6.72;;;17.10;80.40;;;;;;5089195;28;20212;-92
2022/10/20 14:29:38;;;;;;;8.68;6.15;;;17.20;78.80;;;;;;5087814;28;20272;-91
2022/10/20 14:32:07;;;;;;;8.05;6.00;;;17.20;78.80;;;;;;5077655;28;20209;-91
2022/10/20 14:34:36;;;;;;;11.35;9.55;;;17.10;80.50;;;;;;5073728;28;20201;-89
2022/10/20 14:37:24;;;;;;;9.20;6.32;;;17.20;82.40;;;;;;5074264;28;20527;-90
2022/10/20 14:39:55;;;;;;;12.65;5.65;;;17.20;78.80;;;;;;5073313;28;20193;-89
2022/10/20 14:43:07;;;;;;;9.80;5.88;;;17.10;78.80;;;;;;5073878;28;20193;-90
2022/10/20 14:49:04;;;;;;;9.93;6.38;;;16.80;81.20;;;;;;5087240;28;20215;-89
2022/10/20 14:52:25;;;;;;;11.25;6.20;;;16.60;82.00;;;;;;5085961;28;20642;-88
2022/10/20 14:55:27;;;;;;;9.30;6.30;;;16.50;84.20;;;;;;5084912;28;20216;-87
2022/10/20 14:58:42;;;;;;;8.48;6.30;;;16.30;87.50;;;;;;5089448;28;20204;-87
2022/10/20 15:04:33;;;;;;;8.63;6.32;;;16.10;90.10;;;;;;5092549;28;20292;-86
2022/10/20 15:07:15;;;;;;;10.18;6.78;;;16.00;90.30;;;;;;5091018;28;20197;-87
2022/10/20 15:10:07;;;;;;;12.27;7.13;;;16.10;90.50;;;;;;5090031;28;20196;-87
2022/10/20 15:13:19;;;;;;;23.33;18.38;;;16.00;90.70;;;;;;5086310;28;20201;-87
2022/10/20 15:16:30;;;;;;;14.23;9.48;;;15.90;91.00;;;;;;5089265;28;20631;-87
2022/10/20 15:19:42;;;;;;;15.00;7.60;;;15.80;91.10;;;;;;5073285;28;20204;-87
2022/10/20 15:22:26;;;;;;;9.93;7.47;;;15.80;91.00;;;;;;5084714;28;20280;-85
2022/10/20 15:24:54;;;;;;;7.90;6.68;;;15.70;91.60;;;;;;5085520;28;20642;-88
2022/10/20 15:27:21;;;;;;;15.23;11.73;;;15.80;91.70;;;;;;5091482;28;20246;-87
2022/10/20 15:30:21;;;;;;;8.57;6.40;;;15.60;91.60;;;;;;5096765;28;20267;-87
2022/10/20 15:36:13;;;;;;;9.75;7.45;;;15.30;92.20;;;;;;5086432;28;20216;-87
2022/10/20 15:39:03;;;;;;;7.75;6.63;;;15.20;91.60;;;;;;5092424;28;20201;-86
2022/10/20 15:41:45;;;;;;;9.10;6.82;;;15.10;92.30;;;;;;5086915;28;20292;-88
2022/10/20 15:44:26;;;;;;;11.27;7.30;;;15.00;92.40;;;;;;5091087;28;20285;-86
2022/10/20 15:46:55;;;;;;;12.43;7.40;;;14.80;93.00;;;;;;5102427;28;20204;-90
2022/10/20 15:49:32;;;;;;;8.43;6.65;;;14.80;93.40;;;;;;5092774;28;20233;-86
2022/10/20 15:52:05;;;;;;;7.78;6.85;;;14.70;93.70;;;;;;5099195;28;20196;-86
2022/10/20 15:55:21;;;;;;;9.57;6.90;;;14.70;93.40;;;;;;5073169;28;20441;-87
2022/10/20 15:58:27;;;;;;;12.40;7.47;;;14.70;93.80;;;;;;5090620;28;20196;-86
2022/10/20 16:04:31;;;;;;;14.07;7.18;;;14.60;94.20;;;;;;5008861;28;20224;-85
2022/10/20 16:07:22;;;;;;;14.50;10.82;;;14.60;94.10;;;;;;5084308;28;20291;-85
2022/10/20 16:10:10;;;;;;;10.50;7.50;;;14.60;94.80;;;;;;5098207;28;20205;-86
2022/10/20 16:12:40;;;;;;;8.50;7.60;;;14.50;94.40;;;;;;5084794;28;20210;-86
2022/10/20 16:15:20;;;;;;;11.07;7.28;;;14.50;94.40;;;;;;5085716;28;20205;-86
2022/10/20 16:18:15;;;;;;;13.00;7.63;;;14.40;94.40;;;;;;5093525;28;20635;-86
2022/10/20 16:21:01;;;;;;;10.75;7.03;;;14.30;94.70;;;;;;5079247;28;20203;-84
2022/10/20 16:23:30;;;;;;;9.50;6.90;;;14.30;94.80;;;;;;5084410;28;20199;-86
2022/10/20 16:26:10;;;;;;;15.40;7.90;;;14.20;94.80;;;;;;5087792;28;20662;-86
2022/10/20 16:28:41;;;;;;;15.10;7.22;;;14.30;94.80;;;;;;5092523;28;20323;-86
2022/10/20 16:31:17;;;;;;;12.73;7.38;;;14.20;95.00;;;;;;5090666;28;20286;-87
2022/10/20 16:33:47;;;;;;;8.32;7.20;;;14.20;94.60;;;;;;5093092;28;20199;-86
2022/10/20 16:36:21;;;;;;;11.40;6.43;;;14.20;94.50;;;;;;5098480;28;20211;-87
2022/10/20 16:38:56;;;;;;;11.25;7.22;;;14.20;94.30;;;;;;5090555;28;20203;-89
2022/10/20 16:41:24;;;;;;;9.82;6.93;;;14.30;94.20;;;;;;5095878;28;20570;-87
2022/10/20 16:43:53;;;;;;;7.10;5.95;;;14.20;94.20;;;;;;5094068;28;20800;-87
2022/10/20 16:46:21;;;;;;;10.95;6.22;;;14.30;94.00;;;;;;5076322;28;20240;-87
2022/10/20 16:48:51;;;;;;;7.68;6.32;;;14.20;94.00;;;;;;5076160;28;20229;-86
2022/10/20 16:51:20;;;;;;;6.88;6.07;;;14.20;94.00;;;;;;5077733;28;20766;-86
2022/10/20 16:53:55;;;;;;;10.57;6.43;;;14.10;94.10;;;;;;5077341;28;20192;-86
2022/10/20 16:56:44;;;;;;;8.70;6.55;;;14.00;94.40;;;;;;5071509;28;20272;-86
2022/10/20 16:59:25;;;;;;;12.48;7.03;;;14.00;94.90;;;;;;5067301;28;20284;-86
2022/10/20 17:02:07;;;;;;;16.48;7.63;;;13.90;94.80;;;;;;5077334;28;20208;-86
2022/10/20 17:04:48;;;;;;;8.05;6.15;;;13.80;95.20;;;;;;5076869;28;20676;-86
2022/10/20 17:07:15;;;;;;;9.10;5.97;;;13.80;95.60;;;;;;5072869;28;20204;-88
2022/10/20 17:09:49;;;;;;;11.23;6.93;;;13.70;95.80;;;;;;5076506;28;20203;-85
2022/10/20 17:12:16;;;;;;;14.43;6.57;;;13.70;96.20;;;;;;5077932;28;20279;-86
2022/10/20 17:14:43;;;;;;;10.68;6.20;;;13.70;96.10;;;;;;5068885;28;20205;-88
2022/10/20 17:17:25;;;;;;;13.10;6.88;;;13.70;96.60;;;;;;5078929;28;20204;-85
2022/10/20 17:19:56;;;;;;;11.10;6.88;;;13.70;96.60;;;;;;5076421;28;20702;-85
2022/10/20 17:22:23;;;;;;;8.43;6.80;;;13.60;96.60;;;;;;5077411;28;20315;-86
2022/10/20 17:25:08;;;;;;;10.18;7.28;;;13.60;96.60;;;;;;5072990;28;20304;-86
2022/10/20 17:27:54;;;;;;;8.50;6.85;;;13.60;96.60;;;;;;5076323;28;20235;-86
2022/10/20 17:30:21;;;;;;;11.23;7.75;;;13.60;96.90;;;;;;5078134;28;20283;-86
2022/10/20 17:32:48;;;;;;;12.20;7.20;;;13.50;97.00;;;;;;5081034;28;20716;-85
2022/10/20 17:35:28;;;;;;;10.40;6.90;;;13.60;97.10;;;;;;5078006;28;20567;-86
2022/10/20 17:38:01;;;;;;;9.88;7.30;;;13.60;97.20;;;;;;5068147;28;20608;-86
2022/10/20 17:40:35;;;;;;;9.45;7.05;;;13.60;97.40;;;;;;5074330;28;20614;-86
2022/10/20 17:43:19;;;;;;;9.48;7.35;;;13.50;97.40;;;;;;5070659;28;20562;-86
2022/10/20 17:46:14;;;;;;;8.23;6.65;;;13.50;97.50;;;;;;5072455;28;20292;-84
2022/10/20 17:48:41;;;;;;;10.65;7.18;;;13.60;97.70;;;;;;5076296;28;20295;-85
2022/10/20 17:51:38;;;;;;;10.90;7.13;;;13.60;97.60;;;;;;5073357;28;20204;-85
2022/10/20 17:54:05;;;;;;;13.45;7.20;;;13.60;97.70;;;;;;5068564;28;20194;-86
2022/10/20 17:56:38;;;;;;;11.82;7.72;;;13.50;97.90;;;;;;5076990;28;20203;-85
2022/10/20 17:59:07;;;;;;;10.63;7.22;;;13.50;98.20;;;;;;5070148;28;20204;-84
2022/10/20 18:01:39;;;;;;;9.38;6.68;;;13.50;98.40;;;;;;5068416;28;20672;-89
2022/10/20 18:04:09;;;;;;;18.35;7.82;;;13.50;98.60;;;;;;5078145;28;20678;-87
2022/10/20 18:06:38;;;;;;;9.27;7.70;;;13.50;98.40;;;;;;5075881;28;20230;-88
2022/10/20 18:09:10;;;;;;;11.23;7.10;;;13.50;98.60;;;;;;5079126;28;20207;-85
2022/10/20 18:11:39;;;;;;;14.18;8.27;;;13.50;98.70;;;;;;5077622;28;20197;-86
2022/10/20 18:14:19;;;;;;;11.85;7.75;;;13.50;98.40;;;;;;5079794;28;20217;-86
2022/10/20 18:16:49;;;;;;;12.90;7.57;;;13.60;98.60;;;;;;5076185;28;20307;-86
2022/10/20 18:19:19;;;;;;;10.38;7.82;;;13.60;98.60;;;;;;5073472;28;20200;-87
2022/10/20 18:21:49;;;;;;;10.73;7.63;;;13.60;98.50;;;;;;5076125;28;20201;-86
2022/10/20 18:24:17;;;;;;;11.75;7.53;;;13.70;98.20;;;;;;5072079;28;20276;-86
2022/10/20 18:26:49;;;;;;;11.65;7.32;;;13.70;98.00;;;;;;5071895;28;20190;-86
2022/10/20 18:29:25;;;;;;;14.23;7.00;;;13.80;97.50;;;;;;5071833;28;20234;-86
2022/10/20 18:32:01;;;;;;;12.75;6.85;;;13.80;97.50;;;;;;5071806;28;20193;-86
2022/10/20 18:34:28;;;;;;;12.45;6.85;;;13.70;97.50;;;;;;5076628;28;20289;-85
2022/10/20 18:37:08;;;;;;;9.88;7.10;;;13.60;97.80;;;;;;5082114;28;20250;-86
2022/10/20 18:39:43;;;;;;;10.88;7.53;;;13.40;98.00;;;;;;5076290;28;20185;-85
2022/10/20 18:42:31;;;;;;;19.02;7.70;;;13.40;98.20;;;;;;5079542;28;20201;-86
2022/10/20 18:45:01;;;;;;;11.48;6.90;;;13.30;98.60;;;;;;5078010;28;20312;-85
2022/10/20 18:48:00;;;;;;;14.75;7.60;;;13.20;98.80;;;;;;5074231;28;20199;-85
2022/10/20 18:50:32;;;;;;;10.35;6.90;;;13.20;98.70;;;;;;5076002;28;20201;-87
2022/10/20 18:53:02;;;;;;;11.10;7.03;;;13.30;98.40;;;;;;5078720;28;20554;-87
2022/10/20 18:55:37;;;;;;;14.60;7.07;;;13.40;98.00;;;;;;5076500;28;20197;-87
2022/10/20 18:58:07;;;;;;;9.60;6.72;;;13.40;97.60;;;;;;5077109;28;20189;-85
2022/10/20 19:00:37;;;;;;;9.88;7.00;;;13.30;97.30;;;;;;5078632;28;20204;-86
2022/10/20 19:03:09;;;;;;;9.57;6.50;;;13.30;97.50;;;;;;5078832;28;20201;-85
2022/10/20 19:05:43;;;;;;;11.07;7.22;;;13.10;97.90;;;;;;5086110;28;20225;-88
2022/10/20 19:08:38;;;;;;;10.32;7.30;;;13.10;98.20;;;;;;5081016;28;20209;-86
2022/10/20 19:11:15;;;;;;;11.60;7.35;;;13.00;98.30;;;;;;5077800;28;20257;-85
2022/10/20 19:13:42;;;;;;;10.50;7.30;;;13.00;98.20;;;;;;5070590;28;20261;-87
2022/10/20 19:16:11;;;;;;;12.63;6.63;;;12.90;98.20;;;;;;5077549;28;20264;-87
2022/10/20 19:18:44;;;;;;;10.30;7.25;;;13.00;97.90;;;;;;5078444;28;20193;-86
2022/10/20 19:21:12;;;;;;;9.45;6.68;;;13.00;97.80;;;;;;5079322;28;20197;-85
2022/10/20 19:23:42;;;;;;;8.65;6.70;;;13.00;97.50;;;;;;5079872;28;20233;-85
2022/10/20 19:26:13;;;;;;;9.07;6.20;;;13.10;97.50;;;;;;5080342;28;20316;-86
2022/10/20 19:28:42;;;;;;;10.02;6.47;;;13.00;97.50;;;;;;5079914;28;20257;-85
2022/10/20 19:31:17;;;;;;;10.98;6.95;;;12.90;97.70;;;;;;5080252;28;20232;-87
2022/10/20 19:33:44;;;;;;;13.13;6.15;;;12.80;97.50;;;;;;5079592;28;20257;-86